sensor_id;sensor_type;location;lat;lon;timestamp;P1;durP1;ratioP1;P2;durP2;ratioP2
73512;SDS011;61754;55.008;73.348;2022-10-16T00:01:15;39.75;;;16.85;;
73512;SDS011;61754;55.008;73.348;2022-10-16T00:03:42;33.80;;;17.13;;
73512;SDS011;61754;55.008;73.348;2022-10-16T00:06:20;33.42;;;18.60;;
73512;SDS011;61754;55.008;73.348;2022-10-16T00:08:46;36.78;;;16.25;;
73512;SDS011;61754;55.008;73.348;2022-10-16T00:11:13;32.22;;;16.25;;
73512;SDS011;61754;55.008;73.348;2022-10-16T00:13:41;28.52;;;16.10;;
73512;SDS011;61754;55.008;73.348;2022-10-16T00:16:16;35.65;;;15.30;;
73512;SDS011;61754;55.008;73.348;2022-10-16T00:18:42;32.33;;;15.85;;
73512;SDS011;61754;55.008;73.348;2022-10-16T00:21:10;37.97;;;20.27;;
73512;SDS011;61754;55.008;73.348;2022-10-16T00:23:36;37.70;;;20.85;;
73512;SDS011;61754;55.008;73.348;2022-10-16T00:26:12;32.92;;;19.45;;
73512;SDS011;61754;55.008;73.348;2022-10-16T00:28:39;29.75;;;16.55;;
73512;SDS011;61754;55.008;73.348;2022-10-16T00:31:06;29.92;;;17.48;;
73512;SDS011;61754;55.008;73.348;2022-10-16T00:33:32;39.25;;;16.77;;
73512;SDS011;61754;55.008;73.348;2022-10-16T00:35:59;35.10;;;18.92;;
73512;SDS011;61754;55.008;73.348;2022-10-16T00:38:35;33.80;;;19.75;;
73512;SDS011;61754;55.008;73.348;2022-10-16T00:41:15;35.28;;;18.83;;
73512;SDS011;61754;55.008;73.348;2022-10-16T00:43:42;34.47;;;18.80;;
73512;SDS011;61754;55.008;73.348;2022-10-16T00:48:37;31.13;;;17.00;;
73512;SDS011;61754;55.008;73.348;2022-10-16T00:51:04;25.23;;;16.35;;
73512;SDS011;61754;55.008;73.348;2022-10-16T00:53:30;28.05;;;15.70;;
73512;SDS011;61754;55.008;73.348;2022-10-16T00:56:05;34.60;;;16.83;;
73512;SDS011;61754;55.008;73.348;2022-10-16T00:58:39;24.40;;;15.15;;
73512;SDS011;61754;55.008;73.348;2022-10-16T01:01:05;29.00;;;16.73;;
73512;SDS011;61754;55.008;73.348;2022-10-16T01:03:32;29.27;;;16.77;;
73512;SDS011;61754;55.008;73.348;2022-10-16T01:06:05;24.27;;;13.65;;
73512;SDS011;61754;55.008;73.348;2022-10-16T01:11:26;26.95;;;16.33;;
73512;SDS011;61754;55.008;73.348;2022-10-16T01:13:54;26.65;;;16.48;;
73512;SDS011;61754;55.008;73.348;2022-10-16T01:16:42;27.00;;;18.02;;
73512;SDS011;61754;55.008;73.348;2022-10-16T01:19:13;30.05;;;15.93;;
73512;SDS011;61754;55.008;73.348;2022-10-16T01:21:40;30.92;;;15.50;;
73512;SDS011;61754;55.008;73.348;2022-10-16T01:24:25;22.38;;;14.45;;
73512;SDS011;61754;55.008;73.348;2022-10-16T01:32:33;33.53;;;19.65;;
73512;SDS011;61754;55.008;73.348;2022-10-16T01:35:08;29.90;;;17.63;;
73512;SDS011;61754;55.008;73.348;2022-10-16T01:40:38;31.77;;;17.10;;
73512;SDS011;61754;55.008;73.348;2022-10-16T01:43:06;25.20;;;13.60;;
73512;SDS011;61754;55.008;73.348;2022-10-16T01:45:33;20.23;;;14.10;;
73512;SDS011;61754;55.008;73.348;2022-10-16T01:48:01;24.92;;;14.50;;
73512;SDS011;61754;55.008;73.348;2022-10-16T01:50:29;21.40;;;12.88;;
73512;SDS011;61754;55.008;73.348;2022-10-16T01:52:56;22.35;;;13.65;;
73512;SDS011;61754;55.008;73.348;2022-10-16T01:55:29;24.60;;;12.35;;
73512;SDS011;61754;55.008;73.348;2022-10-16T01:57:57;25.77;;;12.18;;
73512;SDS011;61754;55.008;73.348;2022-10-16T02:00:24;25.10;;;13.55;;
73512;SDS011;61754;55.008;73.348;2022-10-16T02:02:51;27.08;;;14.32;;
73512;SDS011;61754;55.008;73.348;2022-10-16T02:05:32;25.20;;;13.63;;
73512;SDS011;61754;55.008;73.348;2022-10-16T02:07:59;24.95;;;13.77;;
73512;SDS011;61754;55.008;73.348;2022-10-16T02:10:25;24.40;;;14.32;;
73512;SDS011;61754;55.008;73.348;2022-10-16T02:12:58;27.25;;;13.07;;
73512;SDS011;61754;55.008;73.348;2022-10-16T02:15:25;27.48;;;14.75;;
73512;SDS011;61754;55.008;73.348;2022-10-16T02:17:50;25.55;;;13.15;;
73512;SDS011;61754;55.008;73.348;2022-10-16T02:20:16;23.02;;;12.75;;
73512;SDS011;61754;55.008;73.348;2022-10-16T02:22:45;25.58;;;13.73;;
73512;SDS011;61754;55.008;73.348;2022-10-16T02:32:34;24.40;;;12.95;;
73512;SDS011;61754;55.008;73.348;2022-10-16T02:35:01;22.08;;;11.60;;
73512;SDS011;61754;55.008;73.348;2022-10-16T02:37:28;27.60;;;13.30;;
73512;SDS011;61754;55.008;73.348;2022-10-16T02:39:59;21.10;;;12.77;;
73512;SDS011;61754;55.008;73.348;2022-10-16T02:42:29;23.83;;;12.88;;
73512;SDS011;61754;55.008;73.348;2022-10-16T02:44:58;30.05;;;14.88;;
73512;SDS011;61754;55.008;73.348;2022-10-16T02:47:25;27.20;;;12.38;;
73512;SDS011;61754;55.008;73.348;2022-10-16T02:49:51;21.30;;;11.90;;
73512;SDS011;61754;55.008;73.348;2022-10-16T02:52:17;31.55;;;12.25;;
73512;SDS011;61754;55.008;73.348;2022-10-16T02:54:43;38.38;;;19.60;;
73512;SDS011;61754;55.008;73.348;2022-10-16T02:57:09;24.60;;;12.38;;
73512;SDS011;61754;55.008;73.348;2022-10-16T02:59:35;22.80;;;12.60;;
73512;SDS011;61754;55.008;73.348;2022-10-16T03:02:01;26.77;;;14.18;;
73512;SDS011;61754;55.008;73.348;2022-10-16T03:04:27;27.38;;;15.05;;
73512;SDS011;61754;55.008;73.348;2022-10-16T03:06:53;30.50;;;14.55;;
73512;SDS011;61754;55.008;73.348;2022-10-16T03:09:19;23.65;;;12.27;;
73512;SDS011;61754;55.008;73.348;2022-10-16T03:11:45;26.48;;;12.48;;
73512;SDS011;61754;55.008;73.348;2022-10-16T03:14:15;31.25;;;13.38;;
73512;SDS011;61754;55.008;73.348;2022-10-16T03:16:42;24.02;;;12.80;;
73512;SDS011;61754;55.008;73.348;2022-10-16T03:19:08;23.40;;;12.32;;
73512;SDS011;61754;55.008;73.348;2022-10-16T03:21:34;26.10;;;13.68;;
73512;SDS011;61754;55.008;73.348;2022-10-16T03:24:00;25.13;;;12.73;;
73512;SDS011;61754;55.008;73.348;2022-10-16T03:26:26;32.05;;;13.25;;
73512;SDS011;61754;55.008;73.348;2022-10-16T03:28:52;29.98;;;13.63;;
73512;SDS011;61754;55.008;73.348;2022-10-16T03:31:22;33.75;;;15.00;;
73512;SDS011;61754;55.008;73.348;2022-10-16T03:33:48;27.92;;;13.90;;
73512;SDS011;61754;55.008;73.348;2022-10-16T03:36:16;30.08;;;15.30;;
73512;SDS011;61754;55.008;73.348;2022-10-16T03:38:42;30.00;;;12.93;;
73512;SDS011;61754;55.008;73.348;2022-10-16T03:41:08;27.08;;;16.05;;
73512;SDS011;61754;55.008;73.348;2022-10-16T03:43:34;26.98;;;15.45;;
73512;SDS011;61754;55.008;73.348;2022-10-16T03:46:01;32.10;;;14.73;;
73512;SDS011;61754;55.008;73.348;2022-10-16T03:48:27;30.52;;;15.15;;
73512;SDS011;61754;55.008;73.348;2022-10-16T03:50:53;47.70;;;23.40;;
73512;SDS011;61754;55.008;73.348;2022-10-16T03:53:20;38.75;;;19.15;;
73512;SDS011;61754;55.008;73.348;2022-10-16T03:55:46;45.10;;;22.08;;
73512;SDS011;61754;55.008;73.348;2022-10-16T03:58:12;38.20;;;21.08;;
73512;SDS011;61754;55.008;73.348;2022-10-16T04:00:42;33.83;;;18.90;;
73512;SDS011;61754;55.008;73.348;2022-10-16T04:03:08;49.85;;;24.55;;
73512;SDS011;61754;55.008;73.348;2022-10-16T04:05:34;47.10;;;23.70;;
73512;SDS011;61754;55.008;73.348;2022-10-16T04:08:01;35.13;;;19.75;;
73512;SDS011;61754;55.008;73.348;2022-10-16T04:10:36;39.92;;;20.25;;
73512;SDS011;61754;55.008;73.348;2022-10-16T04:13:02;42.40;;;16.35;;
73512;SDS011;61754;55.008;73.348;2022-10-16T04:15:33;46.10;;;13.07;;
73512;SDS011;61754;55.008;73.348;2022-10-16T04:17:59;54.80;;;15.65;;
73512;SDS011;61754;55.008;73.348;2022-10-16T04:20:31;45.33;;;14.85;;
73512;SDS011;61754;55.008;73.348;2022-10-16T04:23:01;37.92;;;14.57;;
73512;SDS011;61754;55.008;73.348;2022-10-16T04:25:27;29.63;;;13.88;;
73512;SDS011;61754;55.008;73.348;2022-10-16T04:28:04;34.90;;;13.45;;
73512;SDS011;61754;55.008;73.348;2022-10-16T04:30:30;46.88;;;13.95;;
73512;SDS011;61754;55.008;73.348;2022-10-16T04:32:56;29.75;;;13.38;;
73512;SDS011;61754;55.008;73.348;2022-10-16T04:35:22;30.23;;;13.40;;
73512;SDS011;61754;55.008;73.348;2022-10-16T04:37:48;27.65;;;12.27;;
73512;SDS011;61754;55.008;73.348;2022-10-16T04:40:14;26.27;;;10.98;;
73512;SDS011;61754;55.008;73.348;2022-10-16T04:42:40;28.15;;;12.90;;
73512;SDS011;61754;55.008;73.348;2022-10-16T04:45:06;37.25;;;13.27;;
73512;SDS011;61754;55.008;73.348;2022-10-16T04:47:33;38.45;;;13.35;;
73512;SDS011;61754;55.008;73.348;2022-10-16T04:49:59;35.13;;;12.98;;
73512;SDS011;61754;55.008;73.348;2022-10-16T04:52:26;31.95;;;13.65;;
73512;SDS011;61754;55.008;73.348;2022-10-16T04:55:02;41.20;;;13.90;;
73512;SDS011;61754;55.008;73.348;2022-10-16T04:57:28;35.45;;;13.82;;
73512;SDS011;61754;55.008;73.348;2022-10-16T05:00:04;24.65;;;14.95;;
73512;SDS011;61754;55.008;73.348;2022-10-16T05:02:31;30.58;;;14.57;;
73512;SDS011;61754;55.008;73.348;2022-10-16T05:05:06;23.88;;;13.35;;
73512;SDS011;61754;55.008;73.348;2022-10-16T05:07:32;29.45;;;13.48;;
73512;SDS011;61754;55.008;73.348;2022-10-16T05:09:58;34.55;;;14.98;;
73512;SDS011;61754;55.008;73.348;2022-10-16T05:12:24;24.15;;;13.55;;
73512;SDS011;61754;55.008;73.348;2022-10-16T05:14:50;39.00;;;14.25;;
73512;SDS011;61754;55.008;73.348;2022-10-16T05:17:20;25.35;;;13.25;;
73512;SDS011;61754;55.008;73.348;2022-10-16T05:19:51;38.27;;;14.17;;
73512;SDS011;61754;55.008;73.348;2022-10-16T05:22:17;27.83;;;13.25;;
73512;SDS011;61754;55.008;73.348;2022-10-16T05:24:43;27.13;;;11.85;;
73512;SDS011;61754;55.008;73.348;2022-10-16T05:27:11;30.10;;;13.15;;
73512;SDS011;61754;55.008;73.348;2022-10-16T05:29:47;31.38;;;14.35;;
73512;SDS011;61754;55.008;73.348;2022-10-16T05:32:14;31.95;;;12.75;;
73512;SDS011;61754;55.008;73.348;2022-10-16T05:34:40;24.15;;;11.48;;
73512;SDS011;61754;55.008;73.348;2022-10-16T05:37:06;23.75;;;13.30;;
73512;SDS011;61754;55.008;73.348;2022-10-16T05:39:32;31.75;;;13.48;;
73512;SDS011;61754;55.008;73.348;2022-10-16T05:41:58;27.98;;;13.60;;
73512;SDS011;61754;55.008;73.348;2022-10-16T05:44:24;29.90;;;13.63;;
73512;SDS011;61754;55.008;73.348;2022-10-16T05:46:55;37.38;;;14.95;;
73512;SDS011;61754;55.008;73.348;2022-10-16T05:49:21;29.17;;;15.05;;
73512;SDS011;61754;55.008;73.348;2022-10-16T05:51:47;33.85;;;14.50;;
73512;SDS011;61754;55.008;73.348;2022-10-16T05:54:13;30.55;;;14.55;;
73512;SDS011;61754;55.008;73.348;2022-10-16T05:56:39;35.92;;;14.85;;
73512;SDS011;61754;55.008;73.348;2022-10-16T05:59:05;27.08;;;14.90;;
73512;SDS011;61754;55.008;73.348;2022-10-16T06:01:35;40.85;;;14.82;;
73512;SDS011;61754;55.008;73.348;2022-10-16T06:04:01;20.88;;;10.85;;
73512;SDS011;61754;55.008;73.348;2022-10-16T06:06:27;20.15;;;11.35;;
73512;SDS011;61754;55.008;73.348;2022-10-16T06:08:54;24.30;;;11.63;;
73512;SDS011;61754;55.008;73.348;2022-10-16T06:11:24;20.70;;;11.60;;
73512;SDS011;61754;55.008;73.348;2022-10-16T06:14:01;20.73;;;12.13;;
73512;SDS011;61754;55.008;73.348;2022-10-16T06:16:28;25.58;;;11.02;;
73512;SDS011;61754;55.008;73.348;2022-10-16T06:18:57;21.38;;;11.45;;
73512;SDS011;61754;55.008;73.348;2022-10-16T06:21:25;23.42;;;11.32;;
73512;SDS011;61754;55.008;73.348;2022-10-16T06:23:52;23.20;;;11.73;;
73512;SDS011;61754;55.008;73.348;2022-10-16T06:26:19;19.77;;;7.82;;
73512;SDS011;61754;55.008;73.348;2022-10-16T06:28:45;17.20;;;6.90;;
73512;SDS011;61754;55.008;73.348;2022-10-16T06:31:15;24.00;;;5.82;;
73512;SDS011;61754;55.008;73.348;2022-10-16T06:33:41;11.85;;;4.65;;
73512;SDS011;61754;55.008;73.348;2022-10-16T06:36:08;14.30;;;5.68;;
73512;SDS011;61754;55.008;73.348;2022-10-16T06:38:41;12.52;;;5.40;;
73512;SDS011;61754;55.008;73.348;2022-10-16T06:41:19;12.15;;;5.78;;
73512;SDS011;61754;55.008;73.348;2022-10-16T06:43:46;9.90;;;5.40;;
73512;SDS011;61754;55.008;73.348;2022-10-16T06:46:13;10.38;;;5.57;;
73512;SDS011;61754;55.008;73.348;2022-10-16T06:48:39;9.85;;;5.10;;
73512;SDS011;61754;55.008;73.348;2022-10-16T06:51:10;16.55;;;6.43;;
73512;SDS011;61754;55.008;73.348;2022-10-16T06:53:38;12.20;;;5.70;;
73512;SDS011;61754;55.008;73.348;2022-10-16T06:56:10;7.88;;;5.60;;
73512;SDS011;61754;55.008;73.348;2022-10-16T06:58:46;14.82;;;6.47;;
73512;SDS011;61754;55.008;73.348;2022-10-16T07:01:18;9.48;;;5.30;;
73512;SDS011;61754;55.008;73.348;2022-10-16T07:03:44;22.30;;;7.20;;
73512;SDS011;61754;55.008;73.348;2022-10-16T07:06:12;14.52;;;5.40;;
73512;SDS011;61754;55.008;73.348;2022-10-16T07:08:39;17.48;;;6.82;;
73512;SDS011;61754;55.008;73.348;2022-10-16T07:11:07;11.48;;;5.82;;
73512;SDS011;61754;55.008;73.348;2022-10-16T07:13:34;9.63;;;5.07;;
73512;SDS011;61754;55.008;73.348;2022-10-16T07:16:04;9.98;;;4.88;;
73512;SDS011;61754;55.008;73.348;2022-10-16T07:18:36;10.07;;;5.32;;
73512;SDS011;61754;55.008;73.348;2022-10-16T07:21:13;9.15;;;5.00;;
73512;SDS011;61754;55.008;73.348;2022-10-16T07:23:40;11.13;;;5.30;;
73512;SDS011;61754;55.008;73.348;2022-10-16T07:26:06;7.30;;;5.05;;
73512;SDS011;61754;55.008;73.348;2022-10-16T07:28:32;9.80;;;5.15;;
73512;SDS011;61754;55.008;73.348;2022-10-16T07:31:09;18.27;;;5.55;;
73512;SDS011;61754;55.008;73.348;2022-10-16T07:33:37;14.50;;;5.60;;
73512;SDS011;61754;55.008;73.348;2022-10-16T07:36:04;14.13;;;5.20;;
73512;SDS011;61754;55.008;73.348;2022-10-16T07:38:30;10.45;;;5.88;;
73512;SDS011;61754;55.008;73.348;2022-10-16T07:41:02;10.88;;;5.78;;
73512;SDS011;61754;55.008;73.348;2022-10-16T07:43:39;14.85;;;6.15;;
73512;SDS011;61754;55.008;73.348;2022-10-16T07:46:10;13.20;;;6.43;;
73512;SDS011;61754;55.008;73.348;2022-10-16T07:48:36;10.50;;;6.18;;
73512;SDS011;61754;55.008;73.348;2022-10-16T07:51:03;15.05;;;6.55;;
73512;SDS011;61754;55.008;73.348;2022-10-16T07:53:30;13.38;;;7.45;;
73512;SDS011;61754;55.008;73.348;2022-10-16T07:55:59;11.50;;;7.05;;
73512;SDS011;61754;55.008;73.348;2022-10-16T07:58:26;18.63;;;8.10;;
73512;SDS011;61754;55.008;73.348;2022-10-16T08:00:52;20.10;;;7.78;;
73512;SDS011;61754;55.008;73.348;2022-10-16T08:03:18;22.58;;;7.38;;
73512;SDS011;61754;55.008;73.348;2022-10-16T08:05:44;20.98;;;8.48;;
73512;SDS011;61754;55.008;73.348;2022-10-16T08:08:20;21.00;;;9.52;;
73512;SDS011;61754;55.008;73.348;2022-10-16T08:10:46;25.65;;;11.48;;
73512;SDS011;61754;55.008;73.348;2022-10-16T08:13:12;25.08;;;11.27;;
73512;SDS011;61754;55.008;73.348;2022-10-16T08:15:43;25.95;;;9.77;;
73512;SDS011;61754;55.008;73.348;2022-10-16T08:18:10;24.45;;;8.75;;
73512;SDS011;61754;55.008;73.348;2022-10-16T08:20:42;20.77;;;9.88;;
73512;SDS011;61754;55.008;73.348;2022-10-16T08:23:18;19.45;;;9.68;;
73512;SDS011;61754;55.008;73.348;2022-10-16T08:25:44;24.55;;;9.10;;
73512;SDS011;61754;55.008;73.348;2022-10-16T08:28:10;16.83;;;9.98;;
73512;SDS011;61754;55.008;73.348;2022-10-16T08:30:36;9.93;;;6.65;;
73512;SDS011;61754;55.008;73.348;2022-10-16T08:33:03;19.02;;;7.22;;
73512;SDS011;61754;55.008;73.348;2022-10-16T08:35:29;14.82;;;7.03;;
73512;SDS011;61754;55.008;73.348;2022-10-16T08:38:02;19.93;;;7.40;;
73512;SDS011;61754;55.008;73.348;2022-10-16T08:40:29;16.77;;;7.47;;
73512;SDS011;61754;55.008;73.348;2022-10-16T08:43:41;16.58;;;7.45;;
73512;SDS011;61754;55.008;73.348;2022-10-16T08:48:51;11.25;;;6.43;;
73512;SDS011;61754;55.008;73.348;2022-10-16T08:51:22;12.57;;;6.68;;
73512;SDS011;61754;55.008;73.348;2022-10-16T08:56:15;15.48;;;7.80;;
73512;SDS011;61754;55.008;73.348;2022-10-16T08:58:42;14.25;;;7.20;;
73512;SDS011;61754;55.008;73.348;2022-10-16T09:01:11;8.93;;;5.78;;
73512;SDS011;61754;55.008;73.348;2022-10-16T09:08:52;17.20;;;8.18;;
73512;SDS011;61754;55.008;73.348;2022-10-16T09:16:45;10.35;;;6.22;;
73512;SDS011;61754;55.008;73.348;2022-10-16T09:19:14;14.68;;;7.53;;
73512;SDS011;61754;55.008;73.348;2022-10-16T09:21:41;16.95;;;7.65;;
73512;SDS011;61754;55.008;73.348;2022-10-16T09:24:15;15.38;;;7.20;;
73512;SDS011;61754;55.008;73.348;2022-10-16T09:26:42;23.45;;;7.78;;
73512;SDS011;61754;55.008;73.348;2022-10-16T09:29:10;13.57;;;7.20;;
73512;SDS011;61754;55.008;73.348;2022-10-16T09:31:42;20.08;;;8.98;;
73512;SDS011;61754;55.008;73.348;2022-10-16T09:34:16;17.40;;;8.18;;
73512;SDS011;61754;55.008;73.348;2022-10-16T09:36:45;13.00;;;5.57;;
73512;SDS011;61754;55.008;73.348;2022-10-16T09:39:12;7.32;;;4.20;;
73512;SDS011;61754;55.008;73.348;2022-10-16T09:41:39;7.90;;;4.55;;
73512;SDS011;61754;55.008;73.348;2022-10-16T09:44:13;8.85;;;4.75;;
73512;SDS011;61754;55.008;73.348;2022-10-16T09:46:42;11.85;;;5.07;;
73512;SDS011;61754;55.008;73.348;2022-10-16T09:49:19;10.07;;;4.38;;
73512;SDS011;61754;55.008;73.348;2022-10-16T09:51:46;14.68;;;5.70;;
73512;SDS011;61754;55.008;73.348;2022-10-16T09:54:14;10.15;;;5.45;;
73512;SDS011;61754;55.008;73.348;2022-10-16T09:56:40;7.32;;;5.72;;
73512;SDS011;61754;55.008;73.348;2022-10-16T09:59:14;13.40;;;5.60;;
73512;SDS011;61754;55.008;73.348;2022-10-16T10:01:41;13.27;;;5.63;;
73512;SDS011;61754;55.008;73.348;2022-10-16T10:04:08;11.93;;;5.28;;
73512;SDS011;61754;55.008;73.348;2022-10-16T10:06:43;9.15;;;5.45;;
73512;SDS011;61754;55.008;73.348;2022-10-16T10:09:20;10.88;;;5.68;;
73512;SDS011;61754;55.008;73.348;2022-10-16T10:11:48;13.73;;;6.43;;
73512;SDS011;61754;55.008;73.348;2022-10-16T10:14:25;12.55;;;6.43;;
73512;SDS011;61754;55.008;73.348;2022-10-16T10:17:08;11.20;;;6.60;;
73512;SDS011;61754;55.008;73.348;2022-10-16T10:19:41;14.70;;;6.43;;
73512;SDS011;61754;55.008;73.348;2022-10-16T10:22:13;14.88;;;6.50;;
73512;SDS011;61754;55.008;73.348;2022-10-16T10:24:54;17.67;;;7.63;;
73512;SDS011;61754;55.008;73.348;2022-10-16T10:27:21;11.35;;;7.00;;
73512;SDS011;61754;55.008;73.348;2022-10-16T10:29:54;14.30;;;8.38;;
73512;SDS011;61754;55.008;73.348;2022-10-16T10:32:35;10.50;;;7.95;;
73512;SDS011;61754;55.008;73.348;2022-10-16T10:35:24;13.68;;;7.65;;
73512;SDS011;61754;55.008;73.348;2022-10-16T10:46:00;7.80;;;5.20;;
73512;SDS011;61754;55.008;73.348;2022-10-16T10:51:01;12.48;;;5.32;;
73512;SDS011;61754;55.008;73.348;2022-10-16T10:53:52;17.70;;;5.10;;
73512;SDS011;61754;55.008;73.348;2022-10-16T10:56:30;18.13;;;7.00;;
73512;SDS011;61754;55.008;73.348;2022-10-16T10:59:11;23.90;;;9.05;;
73512;SDS011;61754;55.008;73.348;2022-10-16T11:02:00;30.35;;;10.05;;
73512;SDS011;61754;55.008;73.348;2022-10-16T11:04:54;53.70;;;15.45;;
73512;SDS011;61754;55.008;73.348;2022-10-16T11:07:25;29.30;;;11.55;;
73512;SDS011;61754;55.008;73.348;2022-10-16T11:09:55;20.08;;;8.68;;
73512;SDS011;61754;55.008;73.348;2022-10-16T11:12:32;20.13;;;6.85;;
73512;SDS011;61754;55.008;73.348;2022-10-16T11:15:12;16.52;;;6.55;;
73512;SDS011;61754;55.008;73.348;2022-10-16T11:17:53;12.57;;;6.28;;
73512;SDS011;61754;55.008;73.348;2022-10-16T11:23:10;23.10;;;8.18;;
73512;SDS011;61754;55.008;73.348;2022-10-16T11:25:40;21.13;;;9.65;;
73512;SDS011;61754;55.008;73.348;2022-10-16T11:28:12;20.83;;;10.32;;
73512;SDS011;61754;55.008;73.348;2022-10-16T11:30:47;9.87;;;6.53;;
73512;SDS011;61754;55.008;73.348;2022-10-16T11:40:58;18.33;;;11.10;;
73512;SDS011;61754;55.008;73.348;2022-10-16T11:43:34;26.08;;;11.50;;
73512;SDS011;61754;55.008;73.348;2022-10-16T11:46:04;15.27;;;9.15;;
73512;SDS011;61754;55.008;73.348;2022-10-16T11:49:04;16.98;;;9.82;;
73512;SDS011;61754;55.008;73.348;2022-10-16T11:51:38;23.30;;;12.77;;
73512;SDS011;61754;55.008;73.348;2022-10-16T11:54:22;27.02;;;12.45;;
73512;SDS011;61754;55.008;73.348;2022-10-16T11:56:52;21.45;;;13.40;;
73512;SDS011;61754;55.008;73.348;2022-10-16T11:59:33;24.10;;;17.08;;
73512;SDS011;61754;55.008;73.348;2022-10-16T12:04:33;30.25;;;19.48;;
73512;SDS011;61754;55.008;73.348;2022-10-16T12:07:07;34.08;;;21.65;;
73512;SDS011;61754;55.008;73.348;2022-10-16T12:09:36;35.20;;;23.30;;
73512;SDS011;61754;55.008;73.348;2022-10-16T12:12:03;74.32;;;41.67;;
73512;SDS011;61754;55.008;73.348;2022-10-16T12:17:00;59.80;;;41.00;;
73512;SDS011;61754;55.008;73.348;2022-10-16T12:19:28;55.67;;;35.85;;
73512;SDS011;61754;55.008;73.348;2022-10-16T12:21:56;60.75;;;34.05;;
73512;SDS011;61754;55.008;73.348;2022-10-16T12:27:00;55.88;;;36.50;;
73512;SDS011;61754;55.008;73.348;2022-10-16T12:29:32;97.05;;;54.95;;
73512;SDS011;61754;55.008;73.348;2022-10-16T12:31:59;87.28;;;51.03;;
73512;SDS011;61754;55.008;73.348;2022-10-16T12:37:07;91.33;;;54.90;;
73512;SDS011;61754;55.008;73.348;2022-10-16T12:39:34;90.85;;;50.78;;
73512;SDS011;61754;55.008;73.348;2022-10-16T12:42:31;77.53;;;47.03;;
73512;SDS011;61754;55.008;73.348;2022-10-16T12:44:57;77.95;;;46.40;;
73512;SDS011;61754;55.008;73.348;2022-10-16T12:49:58;59.95;;;39.65;;
73512;SDS011;61754;55.008;73.348;2022-10-16T12:52:31;66.57;;;38.47;;
73512;SDS011;61754;55.008;73.348;2022-10-16T12:55:00;53.88;;;34.15;;
73512;SDS011;61754;55.008;73.348;2022-10-16T12:57:30;63.00;;;41.53;;
73512;SDS011;61754;55.008;73.348;2022-10-16T13:00:21;61.53;;;39.00;;
73512;SDS011;61754;55.008;73.348;2022-10-16T13:05:57;68.28;;;40.20;;
73512;SDS011;61754;55.008;73.348;2022-10-16T13:08:48;61.30;;;36.00;;
73512;SDS011;61754;55.008;73.348;2022-10-16T13:11:30;76.90;;;45.05;;
73512;SDS011;61754;55.008;73.348;2022-10-16T13:16:36;165.40;;;88.63;;
73512;SDS011;61754;55.008;73.348;2022-10-16T13:22:16;96.97;;;55.55;;
73512;SDS011;61754;55.008;73.348;2022-10-16T13:27:40;75.30;;;49.58;;
73512;SDS011;61754;55.008;73.348;2022-10-16T13:30:18;73.90;;;46.40;;
73512;SDS011;61754;55.008;73.348;2022-10-16T13:32:59;104.20;;;60.72;;
73512;SDS011;61754;55.008;73.348;2022-10-16T13:35:27;96.18;;;50.15;;
73512;SDS011;61754;55.008;73.348;2022-10-16T13:38:13;97.25;;;50.30;;
73512;SDS011;61754;55.008;73.348;2022-10-16T13:40:59;65.45;;;37.35;;
73512;SDS011;61754;55.008;73.348;2022-10-16T13:43:31;70.30;;;43.88;;
73512;SDS011;61754;55.008;73.348;2022-10-16T13:46:03;67.85;;;39.30;;
73512;SDS011;61754;55.008;73.348;2022-10-16T13:48:30;59.40;;;35.38;;
73512;SDS011;61754;55.008;73.348;2022-10-16T13:53:30;58.63;;;34.67;;
73512;SDS011;61754;55.008;73.348;2022-10-16T13:56:07;50.47;;;27.90;;
73512;SDS011;61754;55.008;73.348;2022-10-16T13:58:33;51.75;;;30.58;;
73512;SDS011;61754;55.008;73.348;2022-10-16T14:01:03;60.25;;;34.63;;
73512;SDS011;61754;55.008;73.348;2022-10-16T14:03:40;55.47;;;27.77;;
73512;SDS011;61754;55.008;73.348;2022-10-16T14:06:10;44.05;;;26.13;;
73512;SDS011;61754;55.008;73.348;2022-10-16T14:08:47;49.85;;;27.02;;
73512;SDS011;61754;55.008;73.348;2022-10-16T14:11:19;60.55;;;35.53;;
73512;SDS011;61754;55.008;73.348;2022-10-16T14:13:46;40.65;;;25.52;;
73512;SDS011;61754;55.008;73.348;2022-10-16T14:16:21;39.60;;;26.30;;
73512;SDS011;61754;55.008;73.348;2022-10-16T14:18:58;59.28;;;31.20;;
73512;SDS011;61754;55.008;73.348;2022-10-16T14:21:34;50.22;;;30.63;;
73512;SDS011;61754;55.008;73.348;2022-10-16T14:24:10;54.00;;;30.08;;
73512;SDS011;61754;55.008;73.348;2022-10-16T14:26:40;74.20;;;36.22;;
73512;SDS011;61754;55.008;73.348;2022-10-16T14:29:12;52.65;;;29.98;;
73512;SDS011;61754;55.008;73.348;2022-10-16T14:31:42;66.95;;;36.13;;
73512;SDS011;61754;55.008;73.348;2022-10-16T14:34:23;51.00;;;30.48;;
73512;SDS011;61754;55.008;73.348;2022-10-16T14:36:55;50.78;;;28.15;;
73512;SDS011;61754;55.008;73.348;2022-10-16T14:39:22;46.10;;;29.63;;
73512;SDS011;61754;55.008;73.348;2022-10-16T14:41:50;42.47;;;24.85;;
73512;SDS011;61754;55.008;73.348;2022-10-16T14:44:19;40.78;;;24.65;;
73512;SDS011;61754;55.008;73.348;2022-10-16T14:46:53;34.58;;;21.23;;
73512;SDS011;61754;55.008;73.348;2022-10-16T14:49:28;48.58;;;23.40;;
73512;SDS011;61754;55.008;73.348;2022-10-16T14:51:54;38.70;;;23.15;;
73512;SDS011;61754;55.008;73.348;2022-10-16T14:54:21;53.40;;;26.38;;
73512;SDS011;61754;55.008;73.348;2022-10-16T14:56:51;40.20;;;21.92;;
73512;SDS011;61754;55.008;73.348;2022-10-16T14:59:39;40.55;;;19.08;;
73512;SDS011;61754;55.008;73.348;2022-10-16T15:02:24;28.38;;;14.77;;
73512;SDS011;61754;55.008;73.348;2022-10-16T15:04:52;23.38;;;13.35;;
73512;SDS011;61754;55.008;73.348;2022-10-16T15:07:18;29.75;;;14.15;;
73512;SDS011;61754;55.008;73.348;2022-10-16T15:09:44;25.13;;;13.13;;
73512;SDS011;61754;55.008;73.348;2022-10-16T15:12:20;33.25;;;15.38;;
73512;SDS011;61754;55.008;73.348;2022-10-16T15:14:46;28.42;;;17.67;;
73512;SDS011;61754;55.008;73.348;2022-10-16T15:17:11;27.65;;;17.15;;
73512;SDS011;61754;55.008;73.348;2022-10-16T15:19:37;41.83;;;21.50;;
73512;SDS011;61754;55.008;73.348;2022-10-16T15:22:03;30.52;;;19.42;;
73512;SDS011;61754;55.008;73.348;2022-10-16T15:24:33;36.22;;;20.73;;
73512;SDS011;61754;55.008;73.348;2022-10-16T15:26:59;40.67;;;20.23;;
73512;SDS011;61754;55.008;73.348;2022-10-16T15:29:25;39.38;;;23.77;;
73512;SDS011;61754;55.008;73.348;2022-10-16T15:31:51;43.10;;;25.02;;
73512;SDS011;61754;55.008;73.348;2022-10-16T15:34:17;48.83;;;27.02;;
73512;SDS011;61754;55.008;73.348;2022-10-16T15:36:49;46.85;;;28.92;;
73512;SDS011;61754;55.008;73.348;2022-10-16T15:39:16;52.95;;;30.50;;
73512;SDS011;61754;55.008;73.348;2022-10-16T15:41:43;56.72;;;31.27;;
73512;SDS011;61754;55.008;73.348;2022-10-16T15:44:09;46.55;;;30.23;;
73512;SDS011;61754;55.008;73.348;2022-10-16T15:46:35;49.38;;;29.90;;
73512;SDS011;61754;55.008;73.348;2022-10-16T15:49:12;47.28;;;30.05;;
73512;SDS011;61754;55.008;73.348;2022-10-16T15:51:39;54.22;;;30.30;;
73512;SDS011;61754;55.008;73.348;2022-10-16T15:54:05;52.03;;;30.85;;
73512;SDS011;61754;55.008;73.348;2022-10-16T15:56:31;45.53;;;29.80;;